createdAt,value
2017-11-29T00:01:39.167Z,11.57
2017-11-29T00:04:07.495Z,12.10
2017-11-29T00:06:35.009Z,11.68
2017-11-29T00:09:02.833Z,12.75
2017-11-29T00:11:30.545Z,12.63
2017-11-29T00:13:58.160Z,12.32
2017-11-29T00:16:26.966Z,12.50
2017-11-29T00:18:54.969Z,12.75
2017-11-29T00:21:24.466Z,12.43
2017-11-29T00:23:53.213Z,11.60
2017-11-29T00:26:20.969Z,12.52
2017-11-29T00:28:48.649Z,11.63
2017-11-29T00:31:16.391Z,11.63
2017-11-29T00:33:44.074Z,11.82
2017-11-29T00:36:11.615Z,11.93
2017-11-29T00:38:39.544Z,10.85
2017-11-29T00:41:07.408Z,11.32
2017-11-29T00:43:35.946Z,11.43
2017-11-29T00:46:03.588Z,12.33
2017-11-29T00:48:31.280Z,10.68
2017-11-29T00:50:59.045Z,11.07
2017-11-29T00:53:26.693Z,11.77
2017-11-29T00:55:54.469Z,11.38
2017-11-29T00:58:22.214Z,10.13
2017-11-29T01:00:49.992Z,11.40
2017-11-29T01:03:17.517Z,11.12
2017-11-29T01:05:46.072Z,10.57
2017-11-29T01:08:13.963Z,11.05
2017-11-29T01:10:42.488Z,11.07
2017-11-29T01:13:10.021Z,11.50
2017-11-29T01:15:38.364Z,10.57
2017-11-29T01:18:05.893Z,10.13
2017-11-29T01:20:33.449Z,10.65
2017-11-29T01:23:01.014Z,11.87
2017-11-29T01:25:28.700Z,11.60
2017-11-29T01:27:56.296Z,11.52
2017-11-29T01:30:24.615Z,11.00
2017-11-29T01:32:53.017Z,11.55
2017-11-29T01:35:20.654Z,11.43
2017-11-29T01:37:48.391Z,10.13
2017-11-29T01:40:16.000Z,10.00
2017-11-29T01:42:43.586Z,10.10
2017-11-29T01:45:11.141Z,10.02
2017-11-29T01:47:38.734Z,10.35
2017-11-29T01:50:06.511Z,9.13
2017-11-29T01:52:34.201Z,10.38
2017-11-29T01:55:02.086Z,10.15
2017-11-29T01:57:29.985Z,10.82
2017-11-29T01:59:57.582Z,9.30
2017-11-29T02:02:25.181Z,9.20
2017-11-29T02:04:52.892Z,9.55
2017-11-29T02:07:20.572Z,8.90
2017-11-29T02:09:48.322Z,8.70
2017-11-29T02:12:15.959Z,9.15
2017-11-29T02:14:44.457Z,8.45
2017-11-29T02:17:12.817Z,9.70
2017-11-29T02:19:40.513Z,9.83
2017-11-29T02:22:08.088Z,9.80
2017-11-29T02:24:35.629Z,9.43
2017-11-29T02:27:03.209Z,8.80
2017-11-29T02:29:30.744Z,9.55
2017-11-29T02:31:59.046Z,9.82
2017-11-29T02:34:26.611Z,9.35
2017-11-29T02:36:54.170Z,10.03
2017-11-29T02:39:21.733Z,9.10
2017-11-29T02:42:01.277Z,9.20
2017-11-29T02:44:28.803Z,9.30
2017-11-29T02:46:57.092Z,10.10
2017-11-29T02:49:24.989Z,10.30
2017-11-29T02:51:52.510Z,10.23
2017-11-29T02:54:20.912Z,9.65
2017-11-29T02:56:48.423Z,9.98
2017-11-29T02:59:16.042Z,10.75
2017-11-29T03:01:43.555Z,9.75
2017-11-29T03:04:11.884Z,11.02
2017-11-29T03:06:39.400Z,8.90
2017-11-29T03:09:06.936Z,10.00
2017-11-29T03:11:34.454Z,10.10
2017-11-29T03:14:01.989Z,10.80
2017-11-29T03:16:30.277Z,10.18
2017-11-29T03:18:57.861Z,10.73
2017-11-29T03:21:25.387Z,9.80
2017-11-29T03:23:52.980Z,9.70
2017-11-29T03:26:20.527Z,11.10
2017-11-29T03:28:48.035Z,9.70
2017-11-29T03:31:15.571Z,10.40
2017-11-29T03:33:43.118Z,10.27
2017-11-29T03:36:10.687Z,12.05
2017-11-29T03:38:38.218Z,10.18
2017-11-29T03:41:06.516Z,10.85
2017-11-29T03:43:34.077Z,10.73
2017-11-29T03:46:01.611Z,11.00
2017-11-29T03:48:29.900Z,10.35
2017-11-29T03:50:57.437Z,10.65
2017-11-29T03:53:25.720Z,11.02
2017-11-29T03:55:54.020Z,11.60
2017-11-29T03:58:21.542Z,12.25
2017-11-29T04:00:49.155Z,11.23
2017-11-29T04:03:16.681Z,10.90
2017-11-29T04:05:45.002Z,10.27
2017-11-29T04:08:12.542Z,10.00
2017-11-29T04:10:40.130Z,11.00
2017-11-29T04:13:07.644Z,10.27
2017-11-29T04:15:35.963Z,11.05
2017-11-29T04:20:53.899Z,10.23
2017-11-29T04:23:21.449Z,9.52
2017-11-29T04:25:48.997Z,10.30
2017-11-29T04:28:17.312Z,10.10
2017-11-29T04:30:44.872Z,10.05
2017-11-29T04:33:12.433Z,10.52
2017-11-29T04:35:39.983Z,9.82
2017-11-29T04:38:07.508Z,11.15
2017-11-29T04:40:35.823Z,11.15
2017-11-29T04:43:03.345Z,9.80
2017-11-29T04:45:31.662Z,10.60
2017-11-29T04:47:59.181Z,10.48
2017-11-29T04:50:27.512Z,9.68
2017-11-29T04:52:55.068Z,9.38
2017-11-29T04:55:22.604Z,9.33
2017-11-29T04:57:50.145Z,10.15
2017-11-29T05:00:18.456Z,9.05
2017-11-29T05:02:46.000Z,10.20
2017-11-29T05:05:14.292Z,9.98
2017-11-29T05:07:41.827Z,10.35
2017-11-29T05:10:10.135Z,10.05
2017-11-29T05:12:37.660Z,9.48
2017-11-29T05:15:05.957Z,10.45
2017-11-29T05:17:33.490Z,10.65
2017-11-29T05:20:01.016Z,9.10
2017-11-29T05:22:28.555Z,9.55
2017-11-29T05:24:56.116Z,9.82
2017-11-29T05:27:23.652Z,10.00
2017-11-29T05:29:51.963Z,10.50
2017-11-29T05:32:19.527Z,10.80
2017-11-29T05:34:47.077Z,9.45
2017-11-29T05:37:14.605Z,10.40
2017-11-29T05:39:42.908Z,11.10
2017-11-29T05:42:10.441Z,9.77
2017-11-29T05:44:38.724Z,9.60
2017-11-29T05:47:07.029Z,10.43
2017-11-29T05:49:34.587Z,10.18
2017-11-29T05:52:02.155Z,9.98
2017-11-29T05:54:29.707Z,9.40
2017-11-29T05:56:58.088Z,11.13
2017-11-29T05:59:25.607Z,9.38
2017-11-29T06:01:53.908Z,9.65
2017-11-29T06:04:22.217Z,10.02
2017-11-29T06:06:49.765Z,9.20
2017-11-29T06:09:17.323Z,9.13
2017-11-29T06:11:44.834Z,8.83
2017-11-29T06:14:12.378Z,10.38
2017-11-29T06:16:40.171Z,9.07
2017-11-29T06:19:08.491Z,9.47
2017-11-29T06:21:36.008Z,10.68
2017-11-29T06:24:03.610Z,10.40
2017-11-29T06:26:31.133Z,8.20
2017-11-29T06:28:59.453Z,9.40
2017-11-29T06:31:26.968Z,9.85
2017-11-29T06:33:54.498Z,9.30
2017-11-29T06:36:22.028Z,9.93
2017-11-29T06:38:49.593Z,10.05
2017-11-29T06:41:17.162Z,8.80
2017-11-29T06:43:44.715Z,9.20
2017-11-29T06:46:12.227Z,9.07
2017-11-29T06:48:39.760Z,9.93
2017-11-29T06:51:07.288Z,9.25
2017-11-29T06:53:34.820Z,8.80
2017-11-29T06:56:03.110Z,8.82
2017-11-29T06:58:31.406Z,9.93
2017-11-29T07:00:58.925Z,9.85
2017-11-29T07:03:26.466Z,10.05
2017-11-29T07:05:53.991Z,9.80
2017-11-29T07:08:21.551Z,9.55
2017-11-29T07:10:49.116Z,9.45
2017-11-29T07:13:16.676Z,10.73
2017-11-29T07:15:44.232Z,10.05
2017-11-29T07:18:11.773Z,10.40
2017-11-29T07:20:40.174Z,11.93
2017-11-29T07:23:07.717Z,10.35
2017-11-29T07:25:35.249Z,10.23
2017-11-29T07:28:02.776Z,12.57
2017-11-29T07:30:30.312Z,11.70
2017-11-29T07:32:57.845Z,10.18
2017-11-29T07:35:26.159Z,11.25
2017-11-29T07:37:53.684Z,11.07
2017-11-29T07:40:21.989Z,14.85
2017-11-29T07:42:49.510Z,11.05
2017-11-29T07:45:17.108Z,15.80
2017-11-29T07:47:44.668Z,13.13
2017-11-29T07:50:12.296Z,14.18
2017-11-29T07:52:40.595Z,12.13
2017-11-29T07:55:08.164Z,12.15
2017-11-29T07:57:35.689Z,11.43
2017-11-29T08:00:03.230Z,11.20
2017-11-29T08:02:30.764Z,12.15
2017-11-29T08:04:58.295Z,11.40
2017-11-29T08:07:25.864Z,10.77
2017-11-29T08:09:54.136Z,11.10
2017-11-29T08:12:21.656Z,11.85
2017-11-29T08:14:49.284Z,11.90
2017-11-29T08:17:16.816Z,12.10
2017-11-29T08:19:44.393Z,13.05
2017-11-29T08:22:11.923Z,11.88
2017-11-29T08:24:40.241Z,12.20
2017-11-29T08:27:07.758Z,12.40
2017-11-29T08:29:36.049Z,12.32
2017-11-29T08:32:03.604Z,11.40
2017-11-29T08:34:31.888Z,11.97
2017-11-29T08:37:00.193Z,11.77
2017-11-29T08:39:27.708Z,12.43
2017-11-29T08:41:55.240Z,11.73
2017-11-29T08:44:22.873Z,12.02
2017-11-29T08:46:50.412Z,11.40
2017-11-29T08:49:17.985Z,12.07
2017-11-29T08:51:45.525Z,11.30
2017-11-29T08:54:13.815Z,12.37
2017-11-29T08:56:41.386Z,11.90
2017-11-29T08:59:08.896Z,11.87
2017-11-29T09:01:36.540Z,12.33
2017-11-29T09:04:04.064Z,12.10
2017-11-29T09:06:31.632Z,12.10
2017-11-29T09:08:59.189Z,11.13
2017-11-29T09:11:26.725Z,11.90
2017-11-29T09:13:55.033Z,11.67
2017-11-29T09:16:22.670Z,10.70
2017-11-29T09:18:50.959Z,11.70
2017-11-29T09:21:18.587Z,10.43
2017-11-29T09:23:46.969Z,13.30
2017-11-29T09:26:14.655Z,9.90
2017-11-29T09:28:42.315Z,10.70
2017-11-29T09:31:09.941Z,10.57
2017-11-29T09:33:37.710Z,12.20
2017-11-29T09:36:05.316Z,10.10
2017-11-29T09:38:33.761Z,10.00
2017-11-29T09:41:02.513Z,10.37
2017-11-29T09:43:30.053Z,9.60
2017-11-29T09:45:57.682Z,10.40
2017-11-29T09:48:25.248Z,9.07
2017-11-29T09:50:53.531Z,10.70
2017-11-29T09:53:21.832Z,9.87
2017-11-29T09:55:49.344Z,9.17
2017-11-29T09:58:16.876Z,10.60
2017-11-29T10:00:44.423Z,9.20
2017-11-29T10:06:02.714Z,8.33
2017-11-29T10:08:30.241Z,9.17
2017-11-29T10:10:57.791Z,9.13
2017-11-29T10:13:25.318Z,9.77
2017-11-29T10:15:53.627Z,8.60
2017-11-29T10:18:21.137Z,8.90
2017-11-29T10:20:48.751Z,8.37
2017-11-29T10:23:16.321Z,8.87
2017-11-29T10:25:43.975Z,8.90
2017-11-29T10:28:11.555Z,9.20
2017-11-29T10:30:39.122Z,9.73
2017-11-29T10:33:06.668Z,8.33
2017-11-29T10:35:34.204Z,9.07
2017-11-29T10:38:02.508Z,8.90
2017-11-29T10:40:30.080Z,8.20
2017-11-29T10:42:57.612Z,8.70
2017-11-29T10:45:25.138Z,8.50
2017-11-29T10:47:53.462Z,8.13
2017-11-29T10:50:21.020Z,9.53
2017-11-29T10:52:48.554Z,9.07
2017-11-29T10:55:16.834Z,8.50
2017-11-29T10:57:45.128Z,8.33
2017-11-29T11:00:12.916Z,8.43
2017-11-29T11:02:40.444Z,9.10
2017-11-29T11:05:08.729Z,9.37
2017-11-29T11:07:36.304Z,8.90
2017-11-29T11:10:03.959Z,8.70
2017-11-29T11:12:31.726Z,9.33
2017-11-29T11:15:00.083Z,7.60
2017-11-29T11:17:28.392Z,7.43
2017-11-29T11:19:55.953Z,8.20
2017-11-29T11:22:23.461Z,8.10
2017-11-29T11:24:51.003Z,7.67
2017-11-29T11:27:18.522Z,7.50
2017-11-29T11:29:46.047Z,7.90
2017-11-29T11:32:13.564Z,7.97
2017-11-29T11:34:41.103Z,8.20
2017-11-29T11:37:08.629Z,6.80
2017-11-29T11:39:36.221Z,8.70
2017-11-29T11:42:03.732Z,7.80
2017-11-29T11:44:31.257Z,7.67
2017-11-29T11:46:58.842Z,7.87
2017-11-29T11:49:26.337Z,7.10
2017-11-29T11:51:54.644Z,6.87
2017-11-29T11:54:22.168Z,7.67
2017-11-29T11:56:49.686Z,7.07
2017-11-29T11:59:17.228Z,6.60
2017-11-29T12:01:44.738Z,7.23
2017-11-29T12:04:12.700Z,6.40
2017-11-29T12:06:40.216Z,7.30
2017-11-29T12:09:07.728Z,6.93
2017-11-29T12:11:35.269Z,7.30
2017-11-29T12:14:02.800Z,6.60
2017-11-29T12:16:30.323Z,7.70
2017-11-29T12:18:57.934Z,7.13
2017-11-29T12:21:25.464Z,7.20
2017-11-29T12:23:53.036Z,8.43
2017-11-29T12:26:20.619Z,7.80
2017-11-29T12:28:48.432Z,7.47
2017-11-29T12:31:16.950Z,7.07
2017-11-29T12:33:44.516Z,7.60
2017-11-29T12:36:12.088Z,8.30
2017-11-29T12:38:39.643Z,7.90
2017-11-29T12:41:07.356Z,8.30
2017-11-29T12:43:35.785Z,8.50
2017-11-29T12:46:03.330Z,10.33
2017-11-29T12:48:42.792Z,8.50
2017-11-29T12:51:20.076Z,8.00
2017-11-29T12:53:47.596Z,9.30
2017-11-29T12:56:15.909Z,9.87
2017-11-29T12:58:43.466Z,8.57
2017-11-29T13:01:10.996Z,8.83
2017-11-29T13:03:39.340Z,8.33
2017-11-29T13:06:07.848Z,8.10
2017-11-29T13:08:35.362Z,7.30
2017-11-29T13:11:02.884Z,7.30
2017-11-29T13:13:30.444Z,7.17
2017-11-29T13:15:58.089Z,7.50
2017-11-29T13:18:25.669Z,6.73
2017-11-29T13:20:53.289Z,7.53
2017-11-29T13:23:20.928Z,6.67
2017-11-29T13:25:48.478Z,9.77
2017-11-29T13:28:16.009Z,9.67
2017-11-29T13:30:44.336Z,8.30
2017-11-29T13:33:12.670Z,9.20
2017-11-29T13:35:40.209Z,6.70
2017-11-29T13:38:07.749Z,7.90
2017-11-29T13:40:35.261Z,9.50
2017-11-29T13:43:03.649Z,8.60
2017-11-29T13:45:31.164Z,7.53
2017-11-29T13:47:58.767Z,9.67
2017-11-29T13:50:26.281Z,7.90
2017-11-29T13:52:53.817Z,7.50
2017-11-29T13:55:21.341Z,7.20
2017-11-29T13:57:48.883Z,8.33
2017-11-29T14:00:16.396Z,7.10
2017-11-29T14:02:43.928Z,7.30
2017-11-29T14:05:11.441Z,6.43
2017-11-29T14:07:39.020Z,6.27
2017-11-29T14:10:06.556Z,6.10
2017-11-29T14:12:34.175Z,6.53
2017-11-29T14:15:01.694Z,6.30
2017-11-29T14:17:29.288Z,5.53
2017-11-29T14:19:56.859Z,6.90
2017-11-29T14:22:24.444Z,6.30
2017-11-29T14:24:51.977Z,6.47
2017-11-29T14:27:19.510Z,5.57
2017-11-29T14:29:47.806Z,6.20
2017-11-29T14:32:16.196Z,6.57
2017-11-29T14:34:43.765Z,6.77
2017-11-29T14:37:11.317Z,6.23
2017-11-29T14:39:38.901Z,6.00
2017-11-29T14:42:06.405Z,6.00
2017-11-29T14:44:34.773Z,5.80
2017-11-29T14:47:02.391Z,6.63
2017-11-29T14:49:29.924Z,5.70
2017-11-29T14:51:58.200Z,6.03
2017-11-29T14:54:26.507Z,6.60
2017-11-29T14:56:54.020Z,6.47
2017-11-29T14:59:22.341Z,6.17
2017-11-29T15:01:49.876Z,5.77
2017-11-29T15:04:18.202Z,7.07
2017-11-29T15:06:45.719Z,7.10
2017-11-29T15:09:13.305Z,6.87
2017-11-29T15:11:40.827Z,6.33
2017-11-29T15:14:09.244Z,7.37
2017-11-29T15:16:36.764Z,6.33
2017-11-29T15:19:04.357Z,7.23
2017-11-29T15:21:31.864Z,6.50
2017-11-29T15:23:59.395Z,6.67
2017-11-29T15:26:27.754Z,6.50
2017-11-29T15:28:55.336Z,7.68
2017-11-29T15:31:22.847Z,6.07
2017-11-29T15:33:51.136Z,9.00
2017-11-29T15:39:10.654Z,7.80
2017-11-29T15:41:38.168Z,7.55
2017-11-29T15:44:05.690Z,8.23
2017-11-29T15:46:33.213Z,6.80
2017-11-29T15:49:00.789Z,7.13
2017-11-29T15:51:28.301Z,8.90
2017-11-29T15:53:55.813Z,6.95
2017-11-29T15:56:23.343Z,7.35
2017-11-29T15:58:51.627Z,8.18
2017-11-29T16:01:19.168Z,7.62
2017-11-29T16:03:46.683Z,7.55
2017-11-29T16:06:14.217Z,8.25
2017-11-29T16:08:41.735Z,7.07
2017-11-29T16:11:09.340Z,7.30
2017-11-29T16:13:36.869Z,7.12
2017-11-29T16:16:04.397Z,9.63
2017-11-29T16:18:31.916Z,7.97
2017-11-29T16:20:59.456Z,8.38
2017-11-29T16:23:27.752Z,7.85
2017-11-29T16:25:55.313Z,8.65
2017-11-29T16:28:22.832Z,7.75
2017-11-29T16:30:50.371Z,9.15
2017-11-29T16:33:17.917Z,7.43
2017-11-29T16:35:45.474Z,7.90
2017-11-29T16:38:12.985Z,8.27
2017-11-29T16:40:40.516Z,9.68
2017-11-29T16:43:08.052Z,10.60
2017-11-29T16:45:35.612Z,11.90
2017-11-29T16:48:03.164Z,11.93
2017-11-29T16:50:30.682Z,14.27
2017-11-29T16:52:58.302Z,14.05
2017-11-29T16:55:25.851Z,13.40
2017-11-29T16:57:53.401Z,14.85
2017-11-29T17:00:20.925Z,13.10
2017-11-29T17:02:49.248Z,14.70
2017-11-29T17:05:16.760Z,15.85
2017-11-29T17:07:44.379Z,14.07
2017-11-29T17:10:11.927Z,15.20
2017-11-29T17:12:39.467Z,14.60
2017-11-29T17:15:07.761Z,15.57
2017-11-29T17:17:35.309Z,18.40
2017-11-29T17:20:02.899Z,17.73
2017-11-29T17:22:30.444Z,16.17
2017-11-29T17:24:58.005Z,18.73
2017-11-29T17:27:25.572Z,19.35
2017-11-29T17:30:05.108Z,20.75
2017-11-29T17:32:32.655Z,19.92
2017-11-29T17:35:00.940Z,18.50
2017-11-29T17:37:29.334Z,18.45
2017-11-29T17:39:56.889Z,21.50
2017-11-29T17:42:24.403Z,21.83
2017-11-29T17:44:52.019Z,19.92
2017-11-29T17:47:19.593Z,19.98
2017-11-29T17:49:47.179Z,21.87
2017-11-29T17:52:14.738Z,22.70
2017-11-29T17:54:42.275Z,21.10
2017-11-29T17:57:09.828Z,20.62
2017-11-29T17:59:37.363Z,20.83
2017-11-29T18:02:04.887Z,22.17
2017-11-29T18:04:32.466Z,21.37
2017-11-29T18:07:00.779Z,22.58
2017-11-29T18:09:28.324Z,23.08
2017-11-29T18:11:55.844Z,22.10
2017-11-29T18:14:23.394Z,22.13
2017-11-29T18:16:50.908Z,21.92
2017-11-29T18:19:19.212Z,22.35
2017-11-29T18:21:46.736Z,22.92
2017-11-29T18:24:14.319Z,21.87
2017-11-29T18:26:41.843Z,21.60
2017-11-29T18:29:10.126Z,22.58
2017-11-29T18:31:37.660Z,23.25
2017-11-29T18:34:05.172Z,21.52
2017-11-29T18:36:32.744Z,21.92
2017-11-29T18:39:00.268Z,25.40
2017-11-29T18:41:28.669Z,23.27
2017-11-29T18:43:56.175Z,23.25
2017-11-29T18:46:23.717Z,26.23
2017-11-29T18:48:51.228Z,24.92
2017-11-29T18:51:19.657Z,26.15
2017-11-29T18:53:47.180Z,24.15
2017-11-29T18:56:14.761Z,25.95
2017-11-29T18:58:42.286Z,26.10
2017-11-29T19:01:10.694Z,27.50
2017-11-29T19:03:38.331Z,25.95
2017-11-29T19:06:06.629Z,26.83
2017-11-29T19:08:34.188Z,27.77
2017-11-29T19:11:01.721Z,26.15
2017-11-29T19:13:30.025Z,29.55
2017-11-29T19:15:57.621Z,26.80
2017-11-29T19:18:25.143Z,27.27
2017-11-29T19:20:52.681Z,27.10
2017-11-29T19:23:21.001Z,26.65
2017-11-29T19:25:48.540Z,25.65
2017-11-29T19:28:16.114Z,26.92
2017-11-29T19:30:43.678Z,26.00
2017-11-29T19:33:11.224Z,26.05
2017-11-29T19:35:38.804Z,26.48
2017-11-29T19:38:06.349Z,28.02
2017-11-29T19:40:33.933Z,28.20
2017-11-29T19:43:01.474Z,27.87
2017-11-29T19:45:29.035Z,27.15
2017-11-29T19:47:56.589Z,26.77
2017-11-29T19:50:24.110Z,26.75
2017-11-29T19:52:51.718Z,29.85
2017-11-29T19:55:19.282Z,26.90
2017-11-29T19:57:46.817Z,29.15
2017-11-29T20:00:15.109Z,27.70
2017-11-29T20:02:42.680Z,26.45
2017-11-29T20:05:10.208Z,27.58
2017-11-29T20:07:38.538Z,28.40
2017-11-29T20:10:06.104Z,27.48
2017-11-29T20:12:33.670Z,27.73
2017-11-29T20:15:01.334Z,25.52
2017-11-29T20:17:28.881Z,29.25
2017-11-29T20:19:56.411Z,25.33
2017-11-29T20:22:23.992Z,28.00
2017-11-29T20:24:51.524Z,27.87
2017-11-29T20:27:19.820Z,28.77
2017-11-29T20:29:47.345Z,30.48
2017-11-29T20:32:14.935Z,28.52
2017-11-29T20:34:42.504Z,29.63
2017-11-29T20:37:10.043Z,27.13
2017-11-29T20:39:38.332Z,26.35
2017-11-29T20:42:05.921Z,28.55
2017-11-29T20:44:33.470Z,28.52
2017-11-29T20:47:01.040Z,28.08
2017-11-29T20:49:28.578Z,26.73
2017-11-29T20:51:56.156Z,26.52
2017-11-29T20:54:23.716Z,26.75
2017-11-29T20:56:51.245Z,24.80
2017-11-29T20:59:19.553Z,28.20
2017-11-29T21:01:47.979Z,27.33
2017-11-29T21:04:15.495Z,27.50
2017-11-29T21:06:43.022Z,26.80
2017-11-29T21:09:11.314Z,26.35
2017-11-29T21:11:38.876Z,28.40
2017-11-29T21:14:06.414Z,27.10
2017-11-29T21:16:34.817Z,25.40
2017-11-29T21:19:02.393Z,25.60
2017-11-29T21:21:29.947Z,26.40
2017-11-29T21:23:57.498Z,25.05
2017-11-29T21:26:25.031Z,26.52
2017-11-29T21:28:52.618Z,26.58
2017-11-29T21:31:20.183Z,26.37
2017-11-29T21:33:47.766Z,27.27
2017-11-29T21:36:15.418Z,24.90
2017-11-29T21:38:42.963Z,28.50
2017-11-29T21:41:10.544Z,24.45
2017-11-29T21:43:38.083Z,27.30
2017-11-29T21:46:05.623Z,28.48
2017-11-29T21:48:33.937Z,26.85
2017-11-29T21:51:01.488Z,26.17
2017-11-29T21:53:29.009Z,24.67
2017-11-29T21:55:57.324Z,28.10
2017-11-29T21:58:24.904Z,26.27
2017-11-29T22:00:52.459Z,25.95
2017-11-29T22:03:20.009Z,26.00
2017-11-29T22:05:47.539Z,22.65
2017-11-29T22:08:15.960Z,26.92
2017-11-29T22:10:43.512Z,24.98
2017-11-29T22:13:11.073Z,24.75
2017-11-29T22:15:38.647Z,25.17
2017-11-29T22:18:06.300Z,26.67
2017-11-29T22:20:33.812Z,25.67
2017-11-29T22:23:02.121Z,25.35
2017-11-29T22:25:29.658Z,26.45
2017-11-29T22:27:57.973Z,25.45
2017-11-29T22:30:25.496Z,26.52
2017-11-29T22:32:53.796Z,25.05
2017-11-29T22:35:21.322Z,25.48
2017-11-29T22:37:48.855Z,26.58
2017-11-29T22:40:16.392Z,26.15
2017-11-29T22:42:43.928Z,24.90
2017-11-29T22:45:12.212Z,26.15
2017-11-29T22:47:40.528Z,27.48
2017-11-29T22:50:08.065Z,27.17
2017-11-29T22:52:35.604Z,26.50
2017-11-29T22:55:03.900Z,26.48
2017-11-29T22:57:31.459Z,26.48
2017-11-29T22:59:58.994Z,24.80
2017-11-29T23:02:27.296Z,26.35
2017-11-29T23:04:55.133Z,26.60
2017-11-29T23:07:22.662Z,26.42
2017-11-29T23:09:50.197Z,25.37
2017-11-29T23:12:17.719Z,25.00
2017-11-29T23:14:46.120Z,24.83
2017-11-29T23:17:13.638Z,24.27
2017-11-29T23:19:41.253Z,24.52
2017-11-29T23:22:08.772Z,26.27
2017-11-29T23:24:37.068Z,24.30
2017-11-29T23:27:05.368Z,25.17
2017-11-29T23:29:32.904Z,25.17
2017-11-29T23:32:01.179Z,24.40
2017-11-29T23:34:29.484Z,27.70
2017-11-29T23:36:57.040Z,25.20
2017-11-29T23:39:24.601Z,23.60
2017-11-29T23:41:52.165Z,26.00
2017-11-29T23:44:19.705Z,25.17
2017-11-29T23:46:48.008Z,25.48
2017-11-29T23:49:15.529Z,25.25
2017-11-29T23:51:43.835Z,24.52
2017-11-29T23:54:11.399Z,25.67
2017-11-29T23:56:38.959Z,29.35
2017-11-29T23:59:06.558Z,24.92
